Time;durP1;ratioP1;P1;durP2;ratioP2;P2;SDS_P1;SDS_P2;PMS_P1;PMS_P2;Temp;Humidity;BMP_temperature;BMP_pressure;BME280_temperature;BME280_humidity;BME280_pressure;Samples;Min_cycle;Max_cycle;Signal;HPM_P1;HPM_P2
2022/08/09 00:00:58;;;;;;;1.43;0.93;;;;;;;19.19;49.13;102474.19;4960439;28;97114;-48
2022/08/09 00:03:23;;;;;;;0.90;0.90;;;;;;;19.12;49.14;102480.28;4952469;28;96909;-48
2022/08/09 00:05:49;;;;;;;3.47;1.03;;;;;;;19.05;49.48;102480.78;4963297;28;97654;-47
2022/08/09 00:08:14;;;;;;;3.13;0.83;;;;;;;19.02;49.63;102485.38;4959647;28;97083;-48
2022/08/09 00:10:40;;;;;;;1.43;0.90;;;;;;;18.95;49.61;102480.28;4962003;28;97157;-47
2022/08/09 00:13:07;;;;;;;1.43;1.00;;;;;;;18.93;49.85;102482.06;4959226;28;97302;-48
2022/08/09 00:15:33;;;;;;;1.47;0.90;;;;;;;18.87;49.79;102472.94;4956040;28;97619;-48
2022/08/09 00:17:58;;;;;;;0.87;0.87;;;;;;;18.83;49.83;102472.44;4958503;28;96825;-48
2022/08/09 00:20:23;;;;;;;0.90;0.90;;;;;;;18.76;50.00;102473.69;4957103;28;97453;-47
2022/08/09 00:22:49;;;;;;;0.73;0.73;;;;;;;18.68;50.15;102475.44;4960925;28;97338;-48
2022/08/09 00:25:15;;;;;;;1.20;0.97;;;;;;;18.63;50.39;102476.94;4958625;28;97327;-48
2022/08/09 00:27:40;;;;;;;1.00;1.00;;;;;;;18.60;50.38;102474.41;4958781;28;99218;-47
2022/08/09 00:30:06;;;;;;;1.03;0.80;;;;;;;18.57;50.52;102475.41;4957920;28;97395;-48
2022/08/09 00:32:31;;;;;;;1.20;1.10;;;;;;;18.58;50.46;102474.16;4960073;28;97090;-47
2022/08/09 00:34:56;;;;;;;3.03;1.20;;;;;;;18.58;50.46;102474.16;4956790;28;98624;-47
2022/08/09 00:37:22;;;;;;;1.43;0.97;;;;;;;18.58;50.55;102474.16;4957582;28;97310;-48
2022/08/09 00:39:48;;;;;;;4.97;1.20;;;;;;;18.51;50.90;102474.66;4956860;28;97171;-48
2022/08/09 00:42:13;;;;;;;0.70;0.70;;;;;;;18.47;50.89;102474.91;4961535;28;98525;-48
2022/08/09 00:44:39;;;;;;;1.27;1.17;;;;;;;18.46;50.78;102473.38;4957962;28;97421;-47
2022/08/09 00:47:04;;;;;;;1.47;1.20;;;;;;;18.46;51.09;102472.59;4962400;28;96774;-48
2022/08/09 00:49:30;;;;;;;1.07;0.90;;;;;;;18.46;50.97;102478.94;4956721;28;96994;-48
2022/08/09 00:51:56;;;;;;;1.00;0.80;;;;;;;18.40;51.48;102475.34;4955026;28;97052;-48
2022/08/09 00:54:22;;;;;;;1.73;0.90;;;;;;;18.36;51.27;102479.66;4956270;28;97504;-47
2022/08/09 00:56:47;;;;;;;0.90;0.90;;;;;;;18.32;51.53;102474.31;4960582;28;103702;-48
2022/08/09 00:59:13;;;;;;;1.20;0.93;;;;;;;18.29;51.54;102474.56;4957774;28;97111;-48
2022/08/09 01:01:40;;;;;;;1.40;1.20;;;;;;;18.30;51.93;102476.09;4956781;28;96828;-48
2022/08/09 01:04:26;;;;;;;0.80;0.77;;;;;;;18.29;51.75;102478.09;4958096;28;96856;-48
2022/08/09 01:07:19;;;;;;;0.90;0.90;;;;;;;18.28;53.51;102475.84;4961575;28;100176;-48
2022/08/09 01:09:53;;;;;;;1.67;0.90;;;;;;;18.26;51.84;102467.22;4953516;28;97016;-47
2022/08/09 01:12:25;;;;;;;1.40;1.30;;;;;;;18.26;52.22;102470.75;4956538;28;96989;-47
2022/08/09 01:15:03;;;;;;;2.07;0.80;;;;;;;18.29;53.02;102474.56;4958830;28;100548;-47
2022/08/09 01:17:37;;;;;;;1.00;1.00;;;;;;;18.27;52.79;102471.50;4952553;28;101741;-47
2022/08/09 01:20:09;;;;;;;1.37;1.27;;;;;;;18.24;52.92;102467.69;4957533;28;98004;-47
2022/08/09 01:22:53;;;;;;;1.30;1.13;;;;;;;18.24;53.67;102470.47;4957483;28;97300;-47
2022/08/09 01:25:40;;;;;;;1.10;1.00;;;;;;;18.23;53.97;102462.63;4957284;28;96751;-47
2022/08/09 01:28:08;;;;;;;2.00;1.40;;;;;;;18.20;52.34;102466.41;4951646;28;100184;-49
2022/08/09 01:30:35;;;;;;;1.23;1.00;;;;;;;18.19;52.52;102464.91;4958680;28;97676;-47
2022/08/09 01:33:05;;;;;;;1.17;1.00;;;;;;;18.21;52.52;102467.94;4960164;28;96960;-47
2022/08/09 01:36:03;;;;;;;2.30;1.07;;;;;;;18.19;53.76;102473.25;4954138;28;97472;-47
2022/08/09 01:38:33;;;;;;;1.10;0.90;;;;;;;18.18;52.50;102480.09;4959908;28;102757;-47
2022/08/09 01:41:10;;;;;;;1.67;0.93;;;;;;;18.19;52.84;102470.47;4956498;28;96831;-48
2022/08/09 01:43:39;;;;;;;1.63;0.90;;;;;;;18.23;52.54;102476.56;4958693;28;96812;-47
2022/08/09 01:46:05;;;;;;;1.20;1.20;;;;;;;18.23;52.56;102471.75;4956174;28;96861;-47
2022/08/09 01:48:32;;;;;;;1.33;1.23;;;;;;;18.21;52.49;102479.09;4958376;28;97193;-47
2022/08/09 01:50:58;;;;;;;0.83;0.83;;;;;;;18.17;52.66;102476.56;4956228;28;97158;-47
2022/08/09 01:53:25;;;;;;;0.70;0.70;;;;;;;18.17;52.88;102473.78;4956819;28;96881;-47
2022/08/09 01:55:52;;;;;;;1.17;1.10;;;;;;;18.18;52.82;102469.72;4957011;28;97445;-47
2022/08/09 01:58:19;;;;;;;1.93;1.40;;;;;;;18.16;52.73;102479.81;4954399;28;97185;-47
2022/08/09 02:00:46;;;;;;;1.10;1.10;;;;;;;18.16;52.76;102471.47;4956855;28;97156;-47
2022/08/09 02:03:14;;;;;;;1.17;0.70;;;;;;;18.15;52.83;102483.91;4957638;28;97336;-48
2022/08/09 02:05:43;;;;;;;1.10;1.10;;;;;;;18.14;52.89;102474.78;4957516;28;98663;-48
2022/08/09 02:08:12;;;;;;;0.93;0.90;;;;;;;18.12;53.03;102471.72;4956872;28;97358;-47
2022/08/09 02:10:40;;;;;;;2.00;1.23;;;;;;;18.07;53.01;102477.25;4960357;28;96940;-47
2022/08/09 02:13:08;;;;;;;3.67;1.20;;;;;;;18.06;53.01;102470.94;4956742;28;96916;-47
2022/08/09 02:15:37;;;;;;;1.27;1.17;;;;;;;17.98;53.47;102476.22;4954465;28;97382;-47
2022/08/09 02:18:04;;;;;;;1.03;0.93;;;;;;;17.95;53.26;102482.03;4956084;28;97699;-47
2022/08/09 02:20:33;;;;;;;1.20;1.10;;;;;;;17.94;53.29;102477.72;4955086;28;103366;-48
2022/08/09 02:23:12;;;;;;;2.03;1.13;;;;;;;17.93;54.01;102471.38;4956274;28;96873;-47
2022/08/09 02:25:41;;;;;;;1.23;1.23;;;;;;;17.93;53.26;102465.81;4956013;28;96720;-47
2022/08/09 02:28:25;;;;;;;2.03;1.30;;;;;;;17.88;54.33;102474.91;4953493;28;98115;-47
2022/08/09 02:30:57;;;;;;;1.27;0.80;;;;;;;17.88;53.27;102466.56;4954863;28;97245;-47
2022/08/09 02:33:27;;;;;;;1.27;1.17;;;;;;;17.86;53.42;102459.97;4959097;28;96819;-47
2022/08/09 02:35:57;;;;;;;1.27;1.17;;;;;;;17.87;53.56;102469.81;4958591;28;99029;-47
2022/08/09 02:38:27;;;;;;;0.93;0.80;;;;;;;17.87;53.65;102472.63;4951033;28;97396;-47
2022/08/09 02:40:57;;;;;;;1.20;1.20;;;;;;;17.85;53.56;102473.13;4956397;28;96965;-47
2022/08/09 02:43:25;;;;;;;1.17;1.00;;;;;;;17.85;53.44;102467.56;4956802;28;96943;-48
2022/08/09 02:45:52;;;;;;;1.00;1.00;;;;;;;17.81;53.56;102469.81;4956729;28;97378;-47
2022/08/09 02:48:19;;;;;;;1.00;0.80;;;;;;;17.80;53.57;102473.09;4954553;28;97465;-48
2022/08/09 02:50:51;;;;;;;1.33;1.10;;;;;;;17.77;53.93;102472.06;4954508;28;96986;-47
2022/08/09 02:53:35;;;;;;;1.30;1.20;;;;;;;17.76;54.35;102478.91;4955690;28;96860;-47
2022/08/09 02:56:02;;;;;;;1.17;0.90;;;;;;;17.74;53.40;102466.72;4955332;28;101848;-47
2022/08/09 02:58:31;;;;;;;3.23;0.97;;;;;;;17.71;53.51;102465.69;4961430;28;98276;-48
2022/08/09 03:00:58;;;;;;;1.30;1.20;;;;;;;17.68;53.61;102469.50;4952960;28;96822;-47
2022/08/09 03:03:25;;;;;;;1.00;1.00;;;;;;;17.66;53.45;102462.91;4957690;28;96882;-47
2022/08/09 03:05:52;;;;;;;1.13;1.10;;;;;;;17.62;53.48;102470.72;4955416;28;97068;-47
2022/08/09 03:08:20;;;;;;;1.20;1.10;;;;;;;17.54;53.51;102481.53;4958213;28;96948;-47
2022/08/09 03:10:46;;;;;;;5.03;1.10;;;;;;;17.48;53.67;102482.72;4958310;28;97091;-47
2022/08/09 03:13:18;;;;;;;2.40;0.90;;;;;;;17.41;54.24;102480.44;4953721;28;96914;-48
2022/08/09 03:15:44;;;;;;;1.10;1.10;;;;;;;17.40;53.94;102478.91;4958289;28;98475;-47
2022/08/09 03:18:10;;;;;;;1.43;1.10;;;;;;;17.37;53.82;102475.06;4951476;28;97316;-47
2022/08/09 03:20:41;;;;;;;1.10;1.10;;;;;;;17.35;54.11;102477.59;4960942;28;97173;-47
2022/08/09 03:23:07;;;;;;;1.10;1.10;;;;;;;17.32;53.91;102473.00;4947262;28;97183;-47
2022/08/09 03:25:34;;;;;;;1.00;1.00;;;;;;;17.31;53.74;102496.53;4954449;28;97747;-47
2022/08/09 03:28:02;;;;;;;0.97;0.97;;;;;;;17.26;53.77;102491.69;4953406;28;97347;-47
2022/08/09 03:30:28;;;;;;;2.13;1.07;;;;;;;17.18;53.87;102485.06;4954593;28;96850;-48
2022/08/09 03:32:55;;;;;;;1.23;1.13;;;;;;;17.13;53.81;102478.19;4957670;28;97965;-47
2022/08/09 03:35:21;;;;;;;1.20;1.10;;;;;;;17.05;53.93;102479.91;4960447;28;97077;-47
2022/08/09 03:37:47;;;;;;;1.00;1.00;;;;;;;17.00;54.01;102479.84;4954413;28;97137;-47
2022/08/09 03:40:14;;;;;;;1.33;1.10;;;;;;;16.99;53.98;102479.06;4959646;28;98311;-47
2022/08/09 03:42:40;;;;;;;0.97;0.93;;;;;;;16.98;53.97;102480.34;4958293;28;97146;-47
2022/08/09 03:45:06;;;;;;;0.90;0.90;;;;;;;16.96;53.95;102477.31;4957433;28;97927;-47
2022/08/09 03:47:31;;;;;;;1.17;1.00;;;;;;;16.93;53.95;102478.28;4961469;28;97622;-47
2022/08/09 03:49:59;;;;;;;1.30;1.10;;;;;;;16.90;54.10;102479.28;4959429;28;97790;-47
2022/08/09 03:52:26;;;;;;;1.33;1.10;;;;;;;16.87;54.08;102476.69;4957694;28;97253;-47
2022/08/09 03:54:53;;;;;;;1.07;0.97;;;;;;;16.83;54.09;102476.94;4951384;28;98905;-47
2022/08/09 03:57:20;;;;;;;1.47;1.20;;;;;;;16.83;54.15;102476.94;4959975;28;97646;-51
2022/08/09 03:59:46;;;;;;;1.00;1.00;;;;;;;16.79;54.20;102483.97;4959657;28;97080;-47
2022/08/09 04:02:12;;;;;;;0.83;0.83;;;;;;;16.80;54.18;102482.69;4957608;28;97132;-47
2022/08/09 04:04:37;;;;;;;1.10;1.00;;;;;;;16.81;54.14;102479.44;4964360;28;97257;-47
2022/08/09 04:07:03;;;;;;;1.57;1.20;;;;;;;16.81;53.99;102478.66;4954562;28;97528;-47
2022/08/09 04:09:28;;;;;;;1.50;1.40;;;;;;;16.79;54.09;102478.41;4960907;28;97249;-47
2022/08/09 04:12:09;;;;;;;1.50;1.40;;;;;;;16.77;54.95;102486.47;4957479;28;96968;-47
2022/08/09 04:14:39;;;;;;;1.07;1.00;;;;;;;16.76;54.09;102487.72;4952204;28;101359;-48
2022/08/09 04:17:05;;;;;;;1.33;1.23;;;;;;;16.76;54.28;102482.16;4957937;28;97329;-47
2022/08/09 04:19:30;;;;;;;1.30;1.20;;;;;;;16.72;54.24;102482.38;4952765;28;98381;-47
2022/08/09 04:21:56;;;;;;;1.23;1.13;;;;;;;16.70;54.28;102490.44;4959183;28;96991;-47
2022/08/09 04:24:21;;;;;;;1.10;1.10;;;;;;;16.68;54.36;102489.41;4958724;28;97505;-47
2022/08/09 04:26:46;;;;;;;1.30;1.00;;;;;;;16.65;54.31;102485.59;4962979;28;96935;-47
2022/08/09 04:29:12;;;;;;;0.90;0.90;;;;;;;16.65;54.43;102493.94;4959342;28;97218;-47
2022/08/09 04:31:37;;;;;;;0.97;0.97;;;;;;;16.63;54.32;102492.88;4957771;28;97289;-47
2022/08/09 04:34:03;;;;;;;1.23;1.00;;;;;;;16.61;54.45;102496.16;4958050;28;97136;-47
2022/08/09 04:36:30;;;;;;;5.80;1.47;;;;;;;16.61;54.45;102496.16;4955974;28;97129;-48
2022/08/09 04:39:01;;;;;;;1.40;1.30;;;;;;;16.63;54.67;102493.66;4957777;28;97196;-50
2022/08/09 04:41:27;;;;;;;0.90;0.90;;;;;;;16.66;54.51;102505.81;4961534;28;97722;-47
2022/08/09 04:43:52;;;;;;;1.03;1.00;;;;;;;16.66;54.54;102508.59;4955815;28;101828;-47
2022/08/09 04:46:18;;;;;;;1.10;1.10;;;;;;;16.67;54.55;102504.56;4952194;28;96809;-48
2022/08/09 04:48:43;;;;;;;2.03;1.20;;;;;;;16.67;54.55;102515.66;4958864;28;96771;-47
2022/08/09 04:51:09;;;;;;;4.77;1.00;;;;;;;16.67;54.62;102512.88;4953087;28;97057;-48
2022/08/09 04:53:35;;;;;;;1.10;1.10;;;;;;;16.68;54.65;102511.66;4956367;28;97471;-47
2022/08/09 04:56:00;;;;;;;1.00;1.00;;;;;;;16.70;54.71;102512.69;4958979;28;97420;-47
2022/08/09 04:58:27;;;;;;;1.10;1.10;;;;;;;16.74;54.61;102515.25;4957334;28;97156;-47
2022/08/09 05:00:52;;;;;;;1.03;1.03;;;;;;;16.76;54.68;102516.28;4960577;28;96819;-47
2022/08/09 05:03:18;;;;;;;0.80;0.80;;;;;;;16.78;54.75;102518.56;4957184;28;98275;-48
2022/08/09 05:05:43;;;;;;;1.33;1.10;;;;;;;16.82;54.74;102519.13;4959356;28;97224;-47
2022/08/09 05:08:08;;;;;;;1.50;1.40;;;;;;;16.83;54.61;102515.84;4956554;28;97162;-47
2022/08/09 05:10:34;;;;;;;0.80;0.80;;;;;;;16.87;54.64;102515.63;4955419;28;97133;-48
2022/08/09 05:12:59;;;;;;;1.40;0.90;;;;;;;16.87;54.77;102513.63;4953758;28;97978;-48
2022/08/09 05:15:25;;;;;;;1.40;0.93;;;;;;;16.90;54.88;102523.00;4957870;28;97536;-48
2022/08/09 05:17:50;;;;;;;1.00;1.00;;;;;;;16.92;54.82;102518.47;4957750;28;96847;-47
2022/08/09 05:20:16;;;;;;;1.30;1.30;;;;;;;16.95;54.73;102519.50;4953644;28;96839;-48
2022/08/09 05:22:42;;;;;;;1.00;1.00;;;;;;;16.95;54.91;102523.03;4959121;28;98460;-47
2022/08/09 05:25:08;;;;;;;1.43;0.87;;;;;;;16.92;55.02;102523.25;4956479;28;98296;-47
2022/08/09 05:27:33;;;;;;;1.23;1.10;;;;;;;16.93;55.03;102524.78;4955566;28;97404;-48
2022/08/09 05:29:58;;;;;;;1.00;1.00;;;;;;;16.93;55.21;102525.53;4958839;28;97710;-48
2022/08/09 05:32:24;;;;;;;1.10;1.03;;;;;;;16.97;55.24;102519.78;4955957;28;98021;-47
2022/08/09 05:34:49;;;;;;;0.97;0.97;;;;;;;17.05;55.29;102515.28;4955795;28;97108;-47
2022/08/09 05:37:14;;;;;;;1.17;1.17;;;;;;;17.10;55.12;102526.47;4959517;28;97046;-47
2022/08/09 05:39:41;;;;;;;1.20;1.07;;;;;;;17.14;55.29;102526.25;4957457;28;97274;-47
2022/08/09 05:42:06;;;;;;;2.03;1.00;;;;;;;17.17;55.23;102531.59;4955888;28;97875;-47
2022/08/09 05:44:32;;;;;;;0.97;0.97;;;;;;;17.20;55.31;102535.41;4956313;28;97207;-48
2022/08/09 05:46:57;;;;;;;0.90;0.90;;;;;;;17.24;55.46;102527.59;4960045;28;97221;-48
2022/08/09 05:49:23;;;;;;;1.17;1.07;;;;;;;17.27;55.41;102525.84;4956991;28;97405;-47
2022/08/09 05:51:48;;;;;;;0.97;0.80;;;;;;;17.32;55.36;102528.66;4959615;28;97245;-48
2022/08/09 05:54:14;;;;;;;2.40;1.30;;;;;;;17.34;55.37;102528.94;4956552;28;97248;-47
2022/08/09 05:56:39;;;;;;;0.90;0.90;;;;;;;17.44;55.50;102537.88;4959187;28;96971;-47
2022/08/09 05:59:04;;;;;;;0.73;0.73;;;;;;;17.48;55.46;102538.41;4956890;28;97007;-47
2022/08/09 06:01:30;;;;;;;0.93;0.93;;;;;;;17.52;55.45;102542.50;4957952;28;100326;-47
2022/08/09 06:03:55;;;;;;;1.93;1.10;;;;;;;17.56;55.44;102536.72;4957193;28;98129;-48
2022/08/09 06:06:22;;;;;;;1.07;0.70;;;;;;;17.63;55.44;102539.81;4954620;28;97100;-48
2022/08/09 06:08:47;;;;;;;0.70;0.70;;;;;;;17.69;55.42;102540.59;4960211;28;97296;-48
2022/08/09 06:11:13;;;;;;;1.87;1.67;;;;;;;17.77;55.59;102544.47;4954561;28;97319;-47
2022/08/09 06:13:38;;;;;;;0.70;0.70;;;;;;;17.85;55.59;102539.19;4959017;28;97270;-47
2022/08/09 06:16:04;;;;;;;2.10;0.93;;;;;;;17.93;55.59;102543.78;4957907;28;97501;-47
2022/08/09 06:18:31;;;;;;;1.73;1.10;;;;;;;18.00;55.85;102541.81;4958252;28;97087;-48
2022/08/09 06:20:56;;;;;;;1.13;1.10;;;;;;;18.09;55.88;102541.59;4956582;28;97342;-48
2022/08/09 06:23:23;;;;;;;0.80;0.80;;;;;;;18.20;56.13;102542.41;4957986;28;98293;-47
2022/08/09 06:25:49;;;;;;;0.90;0.90;;;;;;;18.33;55.90;102550.31;4956105;28;97001;-48
2022/08/09 06:28:14;;;;;;;1.10;1.10;;;;;;;18.43;55.87;102540.50;4958141;28;96894;-48
2022/08/09 06:30:41;;;;;;;0.80;0.73;;;;;;;18.55;55.96;102544.84;4958143;28;98514;-48
2022/08/09 06:33:07;;;;;;;1.10;1.00;;;;;;;18.64;56.01;102544.63;4960974;28;97628;-47
2022/08/09 06:35:32;;;;;;;1.07;1.00;;;;;;;18.76;55.84;102553.78;4952824;28;97191;-47
2022/08/09 06:37:57;;;;;;;1.03;0.93;;;;;;;18.88;55.96;102558.88;4955298;28;97404;-48
2022/08/09 06:40:23;;;;;;;1.17;1.07;;;;;;;18.99;55.99;102558.91;4956733;28;97854;-48
2022/08/09 06:42:48;;;;;;;0.97;0.97;;;;;;;19.13;55.84;102566.25;4956820;28;97919;-48
2022/08/09 06:45:13;;;;;;;0.73;0.73;;;;;;;19.27;55.71;102570.84;4954396;28;96957;-47
2022/08/09 06:47:39;;;;;;;1.00;0.90;;;;;;;19.40;55.92;102571.16;4958227;28;97031;-47
2022/08/09 06:50:05;;;;;;;1.10;1.00;;;;;;;19.53;55.61;102579.00;4954333;28;97371;-48
2022/08/09 06:52:31;;;;;;;2.23;0.83;;;;;;;19.69;55.42;102578.25;4957268;28;97283;-48
2022/08/09 06:54:56;;;;;;;1.00;1.00;;;;;;;19.81;55.17;102576.94;4959009;28;97348;-48
2022/08/09 06:57:21;;;;;;;0.90;0.90;;;;;;;19.92;55.26;102578.97;4955744;28;98211;-47
2022/08/09 06:59:47;;;;;;;0.80;0.80;;;;;;;20.04;55.01;102578.44;4956879;28;97505;-48
2022/08/09 07:02:12;;;;;;;1.00;0.90;;;;;;;20.18;54.92;102574.56;4956903;28;97464;-48
2022/08/09 07:04:37;;;;;;;1.00;0.93;;;;;;;20.32;54.92;102575.56;4957673;28;96821;-48
2022/08/09 07:07:03;;;;;;;0.90;0.90;;;;;;;20.42;54.56;102573.97;4956227;28;97339;-48
2022/08/09 07:09:28;;;;;;;1.90;1.03;;;;;;;20.56;54.14;102572.91;4956945;28;97732;-47
2022/08/09 07:11:54;;;;;;;3.93;0.67;;;;;;;20.71;54.06;102573.34;4955631;28;98469;-48
2022/08/09 07:14:20;;;;;;;1.73;0.90;;;;;;;20.84;53.86;102581.16;4955268;28;97152;-48
2022/08/09 07:16:46;;;;;;;1.00;0.87;;;;;;;20.96;53.70;102581.84;4955454;28;97279;-48
2022/08/09 07:19:12;;;;;;;0.87;0.70;;;;;;;21.05;53.31;102578.78;4957718;28;97283;-48
2022/08/09 07:21:39;;;;;;;0.87;0.87;;;;;;;21.17;52.98;102580.19;4956190;28;97066;-48
2022/08/09 07:24:05;;;;;;;1.20;0.67;;;;;;;21.29;52.59;102573.25;4955054;28;96867;-48
2022/08/09 07:26:31;;;;;;;1.47;0.90;;;;;;;21.41;52.35;102563.47;4957794;28;97095;-48
2022/08/09 07:28:56;;;;;;;0.70;0.63;;;;;;;21.52;52.03;102582.97;4958816;28;96982;-48
2022/08/09 07:31:22;;;;;;;1.53;0.80;;;;;;;21.67;51.97;102577.00;4955173;28;96891;-48
2022/08/09 07:33:48;;;;;;;1.10;0.60;;;;;;;21.77;51.74;102573.31;4951057;28;97193;-48
2022/08/09 07:36:14;;;;;;;0.70;0.60;;;;;;;21.89;51.42;102588.75;4952889;28;97231;-48
2022/08/09 07:38:39;;;;;;;1.43;0.67;;;;;;;22.00;51.00;102577.44;4954543;28;97156;-48
2022/08/09 07:41:05;;;;;;;3.03;1.10;;;;;;;22.15;50.82;102586.19;4960782;28;97417;-48
2022/08/09 07:43:30;;;;;;;1.27;0.70;;;;;;;22.31;50.62;102579.63;4955862;28;96941;-48
2022/08/09 07:45:56;;;;;;;1.17;0.67;;;;;;;22.47;50.06;102582.75;4959188;28;97101;-48
2022/08/09 07:48:22;;;;;;;1.57;0.70;;;;;;;22.60;49.85;102577.25;4950727;28;97587;-48
2022/08/09 07:50:48;;;;;;;0.80;0.40;;;;;;;22.72;49.60;102579.38;4956335;28;97054;-48
2022/08/09 07:53:13;;;;;;;1.20;0.70;;;;;;;22.86;49.42;102577.41;4958854;28;97142;-48
2022/08/09 07:55:39;;;;;;;0.70;0.60;;;;;;;22.99;49.21;102583.06;4953212;28;104727;-47
2022/08/09 07:58:04;;;;;;;0.90;0.60;;;;;;;23.09;48.88;102572.94;4951030;28;97110;-47
2022/08/09 08:00:30;;;;;;;1.53;0.60;;;;;;;23.22;48.55;102575.81;4956027;28;96956;-48
2022/08/09 08:02:56;;;;;;;1.43;0.50;;;;;;;23.30;48.12;102576.72;4956027;28;97105;-48
2022/08/09 08:05:22;;;;;;;1.00;0.60;;;;;;;23.41;47.75;102567.38;4957981;28;98267;-47
2022/08/09 08:07:47;;;;;;;1.57;0.60;;;;;;;23.54;47.77;102575.84;4953490;28;98532;-48
2022/08/09 08:10:13;;;;;;;1.10;0.50;;;;;;;23.66;47.33;102575.09;4955442;28;97025;-48
2022/08/09 08:12:41;;;;;;;0.80;0.80;;;;;;;23.77;47.05;102576.94;4957142;28;97841;-48
2022/08/09 08:15:07;;;;;;;1.80;0.67;;;;;;;23.90;47.22;102576.19;4958146;28;99069;-47
2022/08/09 08:17:32;;;;;;;1.37;0.70;;;;;;;23.98;46.69;102580.66;4954806;28;97504;-47
2022/08/09 08:19:58;;;;;;;1.07;0.60;;;;;;;24.04;46.36;102574.91;4954545;28;96766;-48
2022/08/09 08:22:23;;;;;;;2.70;0.60;;;;;;;24.16;45.92;102584.66;4950119;28;97186;-49
2022/08/09 08:24:54;;;;;;;1.77;0.53;;;;;;;24.25;45.74;102581.41;4958083;28;97330;-48
2022/08/09 08:27:20;;;;;;;1.23;0.63;;;;;;;24.37;45.45;102586.28;4958151;28;101845;-47
2022/08/09 08:29:45;;;;;;;0.90;0.70;;;;;;;24.44;45.32;102576.41;4961903;28;97151;-48
2022/08/09 08:32:10;;;;;;;0.73;0.67;;;;;;;24.56;44.79;102586.88;4960908;28;96820;-48
2022/08/09 08:34:36;;;;;;;0.97;0.60;;;;;;;24.65;44.75;102588.50;4958672;28;97060;-48
2022/08/09 08:37:01;;;;;;;0.80;0.53;;;;;;;24.77;44.30;102591.84;4958175;28;98617;-48
2022/08/09 08:39:27;;;;;;;0.90;0.60;;;;;;;24.86;44.14;102592.13;4957004;28;98855;-48
2022/08/09 08:41:53;;;;;;;0.60;0.40;;;;;;;24.98;44.08;102593.41;4958804;28;97196;-48
2022/08/09 08:44:21;;;;;;;0.77;0.50;;;;;;;25.13;43.47;102599.19;4956672;28;97165;-48
2022/08/09 08:46:47;;;;;;;0.80;0.60;;;;;;;25.22;43.27;102590.25;4956244;28;97234;-48
2022/08/09 08:49:13;;;;;;;0.70;0.60;;;;;;;25.32;43.21;102587.69;4958465;28;97648;-47
2022/08/09 08:51:39;;;;;;;1.00;0.50;;;;;;;25.46;43.07;102585.59;4962060;28;96813;-46
2022/08/09 08:54:08;;;;;;;0.87;0.80;;;;;;;25.60;42.95;102587.78;4956218;28;96963;-47
2022/08/09 08:56:39;;;;;;;0.73;0.57;;;;;;;25.73;42.03;102589.78;4956806;28;97918;-47
2022/08/09 08:59:06;;;;;;;0.67;0.63;;;;;;;25.81;42.13;102593.41;4956985;28;96967;-47
2022/08/09 09:01:34;;;;;;;1.07;0.70;;;;;;;25.92;42.20;102582.56;4956755;28;97693;-47
2022/08/09 09:04:07;;;;;;;1.07;0.70;;;;;;;26.03;42.12;102587.91;4957515;28;97273;-47
2022/08/09 09:06:35;;;;;;;1.23;0.50;;;;;;;26.04;41.71;102597.13;4957228;28;97248;-47
2022/08/09 09:09:04;;;;;;;0.70;0.57;;;;;;;26.10;41.34;102586.47;4957237;28;96772;-49
2022/08/09 09:11:32;;;;;;;0.70;0.60;;;;;;;26.19;41.21;102588.03;4951186;28;97462;-47
2022/08/09 09:14:00;;;;;;;0.60;0.40;;;;;;;26.28;41.02;102596.72;4959130;28;96976;-47
2022/08/09 09:16:30;;;;;;;1.00;0.60;;;;;;;26.40;40.56;102592.28;4953419;28;96988;-47
2022/08/09 09:18:56;;;;;;;1.00;0.63;;;;;;;26.56;41.00;102585.34;4955101;28;98223;-47
2022/08/09 09:21:22;;;;;;;0.80;0.50;;;;;;;26.72;40.78;102589.75;4956908;28;98427;-47
2022/08/09 09:23:47;;;;;;;0.60;0.50;;;;;;;26.85;40.50;102593.75;4954516;28;97007;-47
2022/08/09 09:26:14;;;;;;;1.37;0.90;;;;;;;26.94;40.05;102599.63;4956551;28;98820;-47
2022/08/09 09:28:45;;;;;;;2.50;0.80;;;;;;;27.03;39.73;102596.25;4958122;28;97222;-47
2022/08/09 09:31:16;;;;;;;0.80;0.80;;;;;;;27.19;38.92;102591.38;4959170;28;96905;-48
2022/08/09 09:33:41;;;;;;;1.20;0.80;;;;;;;27.25;39.57;102589.88;4956622;28;97448;-47
2022/08/09 09:36:09;;;;;;;0.97;0.50;;;;;;;27.32;39.46;102588.38;4958037;28;97310;-47
2022/08/09 09:38:56;;;;;;;0.60;0.60;;;;;;;27.42;38.34;102587.28;4955597;28;97576;-48
2022/08/09 09:41:22;;;;;;;1.23;0.80;;;;;;;27.60;39.09;102590.28;4956286;28;97052;-47
2022/08/09 09:43:48;;;;;;;1.73;1.03;;;;;;;27.66;38.80;102585.94;4956615;28;97179;-47
2022/08/09 09:46:13;;;;;;;0.80;0.80;;;;;;;27.65;38.68;102575.97;4954954;28;98864;-47
2022/08/09 09:48:55;;;;;;;1.47;0.50;;;;;;;27.77;37.62;102576.31;4956867;28;97545;-47
2022/08/09 09:51:20;;;;;;;0.70;0.60;;;;;;;27.78;38.09;102589.91;4950680;28;97776;-48
2022/08/09 09:53:46;;;;;;;1.10;0.50;;;;;;;27.68;38.34;102594.63;4956342;28;96869;-48
2022/08/09 09:56:11;;;;;;;1.33;0.70;;;;;;;27.76;38.36;102586.88;4952593;28;97454;-47
2022/08/09 09:58:45;;;;;;;3.93;0.60;;;;;;;27.93;37.29;102584.22;4955328;28;99990;-47
2022/08/09 10:01:21;;;;;;;1.00;0.53;;;;;;;28.13;37.21;102585.31;4956834;28;97154;-47
2022/08/09 10:03:51;;;;;;;0.87;0.50;;;;;;;28.27;37.37;102583.00;4960684;28;97233;-47
2022/08/09 10:06:17;;;;;;;1.00;0.60;;;;;;;28.37;37.50;102586.75;4959403;28;101892;-47
2022/08/09 10:08:44;;;;;;;0.60;0.40;;;;;;;28.45;37.16;102582.56;4957834;28;97140;-47
2022/08/09 10:11:31;;;;;;;0.97;0.57;;;;;;;28.53;35.61;102583.28;4957321;28;96997;-48
2022/08/09 10:13:57;;;;;;;1.23;0.50;;;;;;;28.60;36.66;102590.25;4957985;28;97137;-47
2022/08/09 10:16:41;;;;;;;1.00;0.60;;;;;;;28.57;35.63;102575.16;4959407;28;102325;-47
2022/08/09 10:19:08;;;;;;;2.60;0.73;;;;;;;28.67;36.42;102575.31;4955227;28;100263;-47
2022/08/09 10:21:45;;;;;;;1.10;0.70;;;;;;;28.82;36.35;102569.53;4957959;28;96781;-47
2022/08/09 10:24:11;;;;;;;0.77;0.70;;;;;;;28.90;36.53;102571.00;4953383;28;97180;-48
2022/08/09 10:26:37;;;;;;;1.70;0.97;;;;;;;28.91;36.25;102575.34;4962246;28;97675;-48
2022/08/09 10:29:03;;;;;;;1.97;0.70;;;;;;;28.87;35.93;102568.56;4957902;28;97338;-47
2022/08/09 10:31:28;;;;;;;1.00;0.77;;;;;;;28.72;36.14;102565.84;4955437;28;96992;-47
2022/08/09 10:33:54;;;;;;;1.73;0.70;;;;;;;28.68;36.08;102565.50;4955715;28;97495;-47
2022/08/09 10:36:19;;;;;;;1.23;0.70;;;;;;;28.62;36.06;102570.59;4957670;28;96971;-48
2022/08/09 10:38:46;;;;;;;0.80;0.60;;;;;;;28.47;36.26;102562.16;4957948;28;98643;-46
2022/08/09 10:41:13;;;;;;;0.80;0.50;;;;;;;28.37;36.21;102566.94;4955992;28;97164;-47
2022/08/09 10:43:45;;;;;;;1.37;0.50;;;;;;;28.29;36.14;102564.13;4957764;28;96888;-47
2022/08/09 10:46:19;;;;;;;0.80;0.70;;;;;;;28.32;35.53;102562.97;4953550;28;97371;-46
2022/08/09 10:48:57;;;;;;;0.87;0.50;;;;;;;28.38;35.67;102565.59;4956247;28;97544;-47
2022/08/09 10:51:45;;;;;;;0.60;0.43;;;;;;;28.50;35.20;102561.78;4956836;28;97072;-47
2022/08/09 10:54:12;;;;;;;0.93;0.80;;;;;;;28.61;35.69;102567.03;4954399;28;97224;-47
2022/08/09 10:56:40;;;;;;;0.60;0.50;;;;;;;28.71;35.50;102567.16;4955895;28;97408;-47
2022/08/09 10:59:23;;;;;;;0.70;0.50;;;;;;;28.85;34.42;102568.41;4954972;28;97121;-46
2022/08/09 11:01:50;;;;;;;2.20;0.50;;;;;;;28.88;34.99;102570.06;4952206;28;97135;-46
2022/08/09 11:04:24;;;;;;;1.10;0.50;;;;;;;28.91;34.76;102571.75;4959132;28;96812;-47
2022/08/09 11:07:09;;;;;;;1.13;0.60;;;;;;;28.94;33.68;102571.34;4956536;28;97415;-47
2022/08/09 11:09:37;;;;;;;0.60;0.40;;;;;;;29.05;34.14;102575.81;4951534;28;98778;-47
2022/08/09 11:12:17;;;;;;;0.60;0.47;;;;;;;29.14;33.78;102572.34;4954352;28;96893;-47
2022/08/09 11:14:53;;;;;;;0.70;0.60;;;;;;;29.19;34.38;102562.88;4959215;28;97072;-46
2022/08/09 11:17:19;;;;;;;1.57;0.60;;;;;;;29.27;34.44;102560.00;4955076;28;103061;-47
2022/08/09 11:19:50;;;;;;;0.77;0.57;;;;;;;29.34;33.28;102568.44;4955104;28;97256;-47
2022/08/09 11:22:17;;;;;;;0.80;0.60;;;;;;;29.34;33.98;102562.75;4954651;28;97057;-47
2022/08/09 11:25:06;;;;;;;0.60;0.40;;;;;;;29.27;33.18;102552.22;4957559;28;96969;-47
2022/08/09 11:27:42;;;;;;;0.60;0.40;;;;;;;29.27;33.93;102557.91;4956563;28;102835;-47